sensor_id;sensor_type;location;lat;lon;timestamp;P1;P2;P0
81640;PMS5003;71053;50.722;-1.944;2023-08-24T00:01:07;10;10;
81640;PMS5003;71053;50.722;-1.944;2023-08-24T00:03:33;10;9;
81640;PMS5003;71053;50.722;-1.944;2023-08-24T00:05:58;17;16;
81640;PMS5003;71053;50.722;-1.944;2023-08-24T00:08:23;11;11;
81640;PMS5003;71053;50.722;-1.944;2023-08-24T00:10:48;12;12;
81640;PMS5003;71053;50.722;-1.944;2023-08-24T00:13:14;10;10;
81640;PMS5003;71053;50.722;-1.944;2023-08-24T00:15:39;12;12;
81640;PMS5003;71053;50.722;-1.944;2023-08-24T00:18:04;11;11;
81640;PMS5003;71053;50.722;-1.944;2023-08-24T00:20:29;14;13;
81640;PMS5003;71053;50.722;-1.944;2023-08-24T00:22:54;11;10;
81640;PMS5003;71053;50.722;-1.944;2023-08-24T00:25:19;12;12;
81640;PMS5003;71053;50.722;-1.944;2023-08-24T00:27:44;15;14;
81640;PMS5003;71053;50.722;-1.944;2023-08-24T00:30:10;14;13;
81640;PMS5003;71053;50.722;-1.944;2023-08-24T00:32:35;12;12;
81640;PMS5003;71053;50.722;-1.944;2023-08-24T00:35:00;11;11;
81640;PMS5003;71053;50.722;-1.944;2023-08-24T00:37:25;14;12;
81640;PMS5003;71053;50.722;-1.944;2023-08-24T00:39:51;9;9;
81640;PMS5003;71053;50.722;-1.944;2023-08-24T00:42:16;10;10;
81640;PMS5003;71053;50.722;-1.944;2023-08-24T00:44:41;12;12;
81640;PMS5003;71053;50.722;-1.944;2023-08-24T00:47:06;10;10;
81640;PMS5003;71053;50.722;-1.944;2023-08-24T00:49:32;11;11;
81640;PMS5003;71053;50.722;-1.944;2023-08-24T00:51:57;14;13;
81640;PMS5003;71053;50.722;-1.944;2023-08-24T00:54:23;13;13;
81640;PMS5003;71053;50.722;-1.944;2023-08-24T00:56:48;9;9;
81640;PMS5003;71053;50.722;-1.944;2023-08-24T00:59:13;11;9;
81640;PMS5003;71053;50.722;-1.944;2023-08-24T01:01:39;11;10;
81640;PMS5003;71053;50.722;-1.944;2023-08-24T01:04:04;10;10;
81640;PMS5003;71053;50.722;-1.944;2023-08-24T01:06:28;10;10;
81640;PMS5003;71053;50.722;-1.944;2023-08-24T01:08:54;11;11;
81640;PMS5003;71053;50.722;-1.944;2023-08-24T01:11:19;12;11;
81640;PMS5003;71053;50.722;-1.944;2023-08-24T01:13:45;11;11;
81640;PMS5003;71053;50.722;-1.944;2023-08-24T01:16:11;11;10;
81640;PMS5003;71053;50.722;-1.944;2023-08-24T01:18:34;10;10;
81640;PMS5003;71053;50.722;-1.944;2023-08-24T01:20:59;7;7;
81640;PMS5003;71053;50.722;-1.944;2023-08-24T01:23:28;8;7;
81640;PMS5003;71053;50.722;-1.944;2023-08-24T01:25:52;11;11;
81640;PMS5003;71053;50.722;-1.944;2023-08-24T01:28:15;8;8;
81640;PMS5003;71053;50.722;-1.944;2023-08-24T01:30:40;7;7;
81640;PMS5003;71053;50.722;-1.944;2023-08-24T01:33:05;9;9;
81640;PMS5003;71053;50.722;-1.944;2023-08-24T01:35:30;8;8;
81640;PMS5003;71053;50.722;-1.944;2023-08-24T01:37:55;12;11;
81640;PMS5003;71053;50.722;-1.944;2023-08-24T01:40:23;8;8;
81640;PMS5003;71053;50.722;-1.944;2023-08-24T01:42:48;11;11;
81640;PMS5003;71053;50.722;-1.944;2023-08-24T01:45:11;8;8;
81640;PMS5003;71053;50.722;-1.944;2023-08-24T01:47:36;8;8;
81640;PMS5003;71053;50.722;-1.944;2023-08-24T01:50:02;6;6;
81640;PMS5003;71053;50.722;-1.944;2023-08-24T01:52:27;11;9;
81640;PMS5003;71053;50.722;-1.944;2023-08-24T01:54:52;8;8;
81640;PMS5003;71053;50.722;-1.944;2023-08-24T01:57:17;7;7;
81640;PMS5003;71053;50.722;-1.944;2023-08-24T01:59:42;7;7;
81640;PMS5003;71053;50.722;-1.944;2023-08-24T02:02:07;10;10;
81640;PMS5003;71053;50.722;-1.944;2023-08-24T02:04:33;12;12;
81640;PMS5003;71053;50.722;-1.944;2023-08-24T02:06:58;12;10;
81640;PMS5003;71053;50.722;-1.944;2023-08-24T02:09:23;10;10;
81640;PMS5003;71053;50.722;-1.944;2023-08-24T02:11:48;11;11;
81640;PMS5003;71053;50.722;-1.944;2023-08-24T02:14:13;12;12;
81640;PMS5003;71053;50.722;-1.944;2023-08-24T02:16:38;13;13;
81640;PMS5003;71053;50.722;-1.944;2023-08-24T02:19:03;10;10;
81640;PMS5003;71053;50.722;-1.944;2023-08-24T02:21:29;11;11;
81640;PMS5003;71053;50.722;-1.944;2023-08-24T02:23:54;11;10;
81640;PMS5003;71053;50.722;-1.944;2023-08-24T02:26:20;8;8;
81640;PMS5003;71053;50.722;-1.944;2023-08-24T02:28:46;14;13;
81640;PMS5003;71053;50.722;-1.944;2023-08-24T02:31:11;11;11;
81640;PMS5003;71053;50.722;-1.944;2023-08-24T02:33:36;11;11;
81640;PMS5003;71053;50.722;-1.944;2023-08-24T02:36:01;10;10;
81640;PMS5003;71053;50.722;-1.944;2023-08-24T02:38:27;9;9;
81640;PMS5003;71053;50.722;-1.944;2023-08-24T02:43:17;8;8;
81640;PMS5003;71053;50.722;-1.944;2023-08-24T02:45:42;8;7;
81640;PMS5003;71053;50.722;-1.944;2023-08-24T02:48:07;9;8;
81640;PMS5003;71053;50.722;-1.944;2023-08-24T02:50:32;9;9;
81640;PMS5003;71053;50.722;-1.944;2023-08-24T02:52:57;11;10;
81640;PMS5003;71053;50.722;-1.944;2023-08-24T02:55:23;9;9;
81640;PMS5003;71053;50.722;-1.944;2023-08-24T02:57:48;8;8;
81640;PMS5003;71053;50.722;-1.944;2023-08-24T03:00:13;7;7;
81640;PMS5003;71053;50.722;-1.944;2023-08-24T03:02:38;8;8;
81640;PMS5003;71053;50.722;-1.944;2023-08-24T03:05:04;9;9;
81640;PMS5003;71053;50.722;-1.944;2023-08-24T03:07:28;10;10;
81640;PMS5003;71053;50.722;-1.944;2023-08-24T03:09:53;9;9;
81640;PMS5003;71053;50.722;-1.944;2023-08-24T03:12:19;8;7;
81640;PMS5003;71053;50.722;-1.944;2023-08-24T03:14:44;8;8;
81640;PMS5003;71053;50.722;-1.944;2023-08-24T03:17:09;9;9;
81640;PMS5003;71053;50.722;-1.944;2023-08-24T03:19:34;7;7;
81640;PMS5003;71053;50.722;-1.944;2023-08-24T03:22:00;8;7;
81640;PMS5003;71053;50.722;-1.944;2023-08-24T03:24:25;7;6;
81640;PMS5003;71053;50.722;-1.944;2023-08-24T03:26:50;8;8;
81640;PMS5003;71053;50.722;-1.944;2023-08-24T03:29:15;8;8;
81640;PMS5003;71053;50.722;-1.944;2023-08-24T03:31:40;8;8;
81640;PMS5003;71053;50.722;-1.944;2023-08-24T03:34:05;7;7;
81640;PMS5003;71053;50.722;-1.944;2023-08-24T03:36:30;6;6;
81640;PMS5003;71053;50.722;-1.944;2023-08-24T03:38:55;6;6;
81640;PMS5003;71053;50.722;-1.944;2023-08-24T03:41:20;7;6;
81640;PMS5003;71053;50.722;-1.944;2023-08-24T03:43:45;8;8;
81640;PMS5003;71053;50.722;-1.944;2023-08-24T03:46:11;7;6;
81640;PMS5003;71053;50.722;-1.944;2023-08-24T03:48:36;9;8;
81640;PMS5003;71053;50.722;-1.944;2023-08-24T03:51:01;7;7;
81640;PMS5003;71053;50.722;-1.944;2023-08-24T03:53:26;8;7;
81640;PMS5003;71053;50.722;-1.944;2023-08-24T03:55:51;5;5;
81640;PMS5003;71053;50.722;-1.944;2023-08-24T03:58:16;6;6;
81640;PMS5003;71053;50.722;-1.944;2023-08-24T04:00:41;6;6;
81640;PMS5003;71053;50.722;-1.944;2023-08-24T04:03:06;5;5;
81640;PMS5003;71053;50.722;-1.944;2023-08-24T04:05:31;9;9;
81640;PMS5003;71053;50.722;-1.944;2023-08-24T04:07:57;6;5;
81640;PMS5003;71053;50.722;-1.944;2023-08-24T04:10:22;7;7;
81640;PMS5003;71053;50.722;-1.944;2023-08-24T04:12:47;6;6;
81640;PMS5003;71053;50.722;-1.944;2023-08-24T04:15:12;9;9;
81640;PMS5003;71053;50.722;-1.944;2023-08-24T04:17:37;8;8;
81640;PMS5003;71053;50.722;-1.944;2023-08-24T04:20:02;6;6;
81640;PMS5003;71053;50.722;-1.944;2023-08-24T04:22:27;6;6;
81640;PMS5003;71053;50.722;-1.944;2023-08-24T04:24:53;6;6;
81640;PMS5003;71053;50.722;-1.944;2023-08-24T04:27:18;7;7;
81640;PMS5003;71053;50.722;-1.944;2023-08-24T04:29:43;5;5;
81640;PMS5003;71053;50.722;-1.944;2023-08-24T04:32:08;7;7;
81640;PMS5003;71053;50.722;-1.944;2023-08-24T04:34:33;7;7;
81640;PMS5003;71053;50.722;-1.944;2023-08-24T04:36:58;8;7;
81640;PMS5003;71053;50.722;-1.944;2023-08-24T04:39:23;7;7;
81640;PMS5003;71053;50.722;-1.944;2023-08-24T04:41:48;7;7;
81640;PMS5003;71053;50.722;-1.944;2023-08-24T04:44:13;8;8;
81640;PMS5003;71053;50.722;-1.944;2023-08-24T04:46:39;12;12;
81640;PMS5003;71053;50.722;-1.944;2023-08-24T04:49:05;8;7;
81640;PMS5003;71053;50.722;-1.944;2023-08-24T04:51:30;8;8;
81640;PMS5003;71053;50.722;-1.944;2023-08-24T04:53:55;10;10;
81640;PMS5003;71053;50.722;-1.944;2023-08-24T04:56:20;9;9;
81640;PMS5003;71053;50.722;-1.944;2023-08-24T05:01:10;7;7;
81640;PMS5003;71053;50.722;-1.944;2023-08-24T05:03:36;9;9;
81640;PMS5003;71053;50.722;-1.944;2023-08-24T05:06:01;7;7;
81640;PMS5003;71053;50.722;-1.944;2023-08-24T05:08:26;6;6;
81640;PMS5003;71053;50.722;-1.944;2023-08-24T05:10:51;4;4;
81640;PMS5003;71053;50.722;-1.944;2023-08-24T05:13:16;6;6;
81640;PMS5003;71053;50.722;-1.944;2023-08-24T05:15:41;9;8;
81640;PMS5003;71053;50.722;-1.944;2023-08-24T05:18:06;7;6;
81640;PMS5003;71053;50.722;-1.944;2023-08-24T05:20:32;7;7;
81640;PMS5003;71053;50.722;-1.944;2023-08-24T05:22:56;6;6;
81640;PMS5003;71053;50.722;-1.944;2023-08-24T05:25:22;9;8;
81640;PMS5003;71053;50.722;-1.944;2023-08-24T05:27:47;7;7;
81640;PMS5003;71053;50.722;-1.944;2023-08-24T05:30:13;9;8;
81640;PMS5003;71053;50.722;-1.944;2023-08-24T05:32:38;7;7;
81640;PMS5003;71053;50.722;-1.944;2023-08-24T05:35:03;8;8;
81640;PMS5003;71053;50.722;-1.944;2023-08-24T05:37:28;9;8;
81640;PMS5003;71053;50.722;-1.944;2023-08-24T05:39:53;6;6;
81640;PMS5003;71053;50.722;-1.944;2023-08-24T05:42:18;9;9;
81640;PMS5003;71053;50.722;-1.944;2023-08-24T05:44:43;8;8;
81640;PMS5003;71053;50.722;-1.944;2023-08-24T05:47:08;8;8;
81640;PMS5003;71053;50.722;-1.944;2023-08-24T05:49:33;7;7;
81640;PMS5003;71053;50.722;-1.944;2023-08-24T05:51:59;6;6;
81640;PMS5003;71053;50.722;-1.944;2023-08-24T05:54:24;7;7;
81640;PMS5003;71053;50.722;-1.944;2023-08-24T05:56:49;8;8;
81640;PMS5003;71053;50.722;-1.944;2023-08-24T05:59:14;9;9;
81640;PMS5003;71053;50.722;-1.944;2023-08-24T06:01:39;8;8;
81640;PMS5003;71053;50.722;-1.944;2023-08-24T06:04:04;7;7;
81640;PMS5003;71053;50.722;-1.944;2023-08-24T06:06:29;8;8;
81640;PMS5003;71053;50.722;-1.944;2023-08-24T06:08:55;9;9;
81640;PMS5003;71053;50.722;-1.944;2023-08-24T06:11:20;9;8;
81640;PMS5003;71053;50.722;-1.944;2023-08-24T06:13:45;8;8;
81640;PMS5003;71053;50.722;-1.944;2023-08-24T06:16:10;10;9;
81640;PMS5003;71053;50.722;-1.944;2023-08-24T06:18:35;8;8;
81640;PMS5003;71053;50.722;-1.944;2023-08-24T06:21:01;9;8;
81640;PMS5003;71053;50.722;-1.944;2023-08-24T06:23:26;8;8;
81640;PMS5003;71053;50.722;-1.944;2023-08-24T06:25:51;9;8;
81640;PMS5003;71053;50.722;-1.944;2023-08-24T06:28:17;10;10;
81640;PMS5003;71053;50.722;-1.944;2023-08-24T06:30:42;8;8;
81640;PMS5003;71053;50.722;-1.944;2023-08-24T06:33:07;9;9;
81640;PMS5003;71053;50.722;-1.944;2023-08-24T06:35:32;9;9;
81640;PMS5003;71053;50.722;-1.944;2023-08-24T06:37:58;8;8;
81640;PMS5003;71053;50.722;-1.944;2023-08-24T06:40:22;6;6;
81640;PMS5003;71053;50.722;-1.944;2023-08-24T06:42:47;6;6;
81640;PMS5003;71053;50.722;-1.944;2023-08-24T06:45:12;6;6;
81640;PMS5003;71053;50.722;-1.944;2023-08-24T06:47:38;10;9;
81640;PMS5003;71053;50.722;-1.944;2023-08-24T06:50:03;8;8;
81640;PMS5003;71053;50.722;-1.944;2023-08-24T06:52:28;9;8;
81640;PMS5003;71053;50.722;-1.944;2023-08-24T06:54:53;9;9;
81640;PMS5003;71053;50.722;-1.944;2023-08-24T06:57:18;13;12;
81640;PMS5003;71053;50.722;-1.944;2023-08-24T06:59:43;10;10;
81640;PMS5003;71053;50.722;-1.944;2023-08-24T07:02:09;9;8;
81640;PMS5003;71053;50.722;-1.944;2023-08-24T07:04:34;8;8;
81640;PMS5003;71053;50.722;-1.944;2023-08-24T07:06:59;8;8;
81640;PMS5003;71053;50.722;-1.944;2023-08-24T07:09:24;9;9;
81640;PMS5003;71053;50.722;-1.944;2023-08-24T07:11:50;9;8;
81640;PMS5003;71053;50.722;-1.944;2023-08-24T07:14:16;7;6;
81640;PMS5003;71053;50.722;-1.944;2023-08-24T07:16:42;9;9;
81640;PMS5003;71053;50.722;-1.944;2023-08-24T07:19:07;7;7;
81640;PMS5003;71053;50.722;-1.944;2023-08-24T07:21:32;7;7;
81640;PMS5003;71053;50.722;-1.944;2023-08-24T07:23:57;7;7;
81640;PMS5003;71053;50.722;-1.944;2023-08-24T07:26:22;4;4;
81640;PMS5003;71053;50.722;-1.944;2023-08-24T07:28:48;6;6;
81640;PMS5003;71053;50.722;-1.944;2023-08-24T07:31:13;6;6;
81640;PMS5003;71053;50.722;-1.944;2023-08-24T07:33:38;7;7;
81640;PMS5003;71053;50.722;-1.944;2023-08-24T07:36:03;6;6;
81640;PMS5003;71053;50.722;-1.944;2023-08-24T07:38:28;9;9;
81640;PMS5003;71053;50.722;-1.944;2023-08-24T07:40:53;8;7;
81640;PMS5003;71053;50.722;-1.944;2023-08-24T07:43:18;7;7;
81640;PMS5003;71053;50.722;-1.944;2023-08-24T07:45:43;5;5;
81640;PMS5003;71053;50.722;-1.944;2023-08-24T07:48:08;5;5;
81640;PMS5003;71053;50.722;-1.944;2023-08-24T07:50:33;7;7;
81640;PMS5003;71053;50.722;-1.944;2023-08-24T07:52:59;5;5;
81640;PMS5003;71053;50.722;-1.944;2023-08-24T07:55:24;7;7;
81640;PMS5003;71053;50.722;-1.944;2023-08-24T07:57:49;6;6;
81640;PMS5003;71053;50.722;-1.944;2023-08-24T08:00:14;6;6;
81640;PMS5003;71053;50.722;-1.944;2023-08-24T08:02:39;7;6;
81640;PMS5003;71053;50.722;-1.944;2023-08-24T08:05:04;4;4;
81640;PMS5003;71053;50.722;-1.944;2023-08-24T08:07:29;3;3;
81640;PMS5003;71053;50.722;-1.944;2023-08-24T08:09:54;4;4;
81640;PMS5003;71053;50.722;-1.944;2023-08-24T08:12:19;4;4;
81640;PMS5003;71053;50.722;-1.944;2023-08-24T08:14:44;8;8;
81640;PMS5003;71053;50.722;-1.944;2023-08-24T08:17:09;8;7;
81640;PMS5003;71053;50.722;-1.944;2023-08-24T08:19:34;7;7;
81640;PMS5003;71053;50.722;-1.944;2023-08-24T08:22:00;8;8;
81640;PMS5003;71053;50.722;-1.944;2023-08-24T08:24:25;6;6;
81640;PMS5003;71053;50.722;-1.944;2023-08-24T08:26:50;5;5;
81640;PMS5003;71053;50.722;-1.944;2023-08-24T08:29:15;7;7;
81640;PMS5003;71053;50.722;-1.944;2023-08-24T08:31:41;6;6;
81640;PMS5003;71053;50.722;-1.944;2023-08-24T08:34:06;5;5;
81640;PMS5003;71053;50.722;-1.944;2023-08-24T08:36:31;7;6;
81640;PMS5003;71053;50.722;-1.944;2023-08-24T08:38:56;6;5;
81640;PMS5003;71053;50.722;-1.944;2023-08-24T08:41:21;6;6;
81640;PMS5003;71053;50.722;-1.944;2023-08-24T08:43:46;6;6;
81640;PMS5003;71053;50.722;-1.944;2023-08-24T08:46:11;5;4;
81640;PMS5003;71053;50.722;-1.944;2023-08-24T08:48:36;4;4;
81640;PMS5003;71053;50.722;-1.944;2023-08-24T08:51:01;5;5;
81640;PMS5003;71053;50.722;-1.944;2023-08-24T08:53:27;3;3;
81640;PMS5003;71053;50.722;-1.944;2023-08-24T08:55:53;6;6;
81640;PMS5003;71053;50.722;-1.944;2023-08-24T08:58:18;8;7;
81640;PMS5003;71053;50.722;-1.944;2023-08-24T09:00:43;4;4;
81640;PMS5003;71053;50.722;-1.944;2023-08-24T09:03:08;5;5;
81640;PMS5003;71053;50.722;-1.944;2023-08-24T09:05:33;6;6;
81640;PMS5003;71053;50.722;-1.944;2023-08-24T09:07:58;5;5;
81640;PMS5003;71053;50.722;-1.944;2023-08-24T09:10:23;4;4;
81640;PMS5003;71053;50.722;-1.944;2023-08-24T09:12:48;6;6;
81640;PMS5003;71053;50.722;-1.944;2023-08-24T09:15:13;5;5;
81640;PMS5003;71053;50.722;-1.944;2023-08-24T09:17:42;4;4;
81640;PMS5003;71053;50.722;-1.944;2023-08-24T09:20:06;5;5;
81640;PMS5003;71053;50.722;-1.944;2023-08-24T09:22:28;5;5;
81640;PMS5003;71053;50.722;-1.944;2023-08-24T09:24:53;4;4;
81640;PMS5003;71053;50.722;-1.944;2023-08-24T09:27:19;4;3;
81640;PMS5003;71053;50.722;-1.944;2023-08-24T09:29:47;5;5;
81640;PMS5003;71053;50.722;-1.944;2023-08-24T09:32:08;4;4;
81640;PMS5003;71053;50.722;-1.944;2023-08-24T09:34:33;5;5;
81640;PMS5003;71053;50.722;-1.944;2023-08-24T09:36:58;4;4;
81640;PMS5003;71053;50.722;-1.944;2023-08-24T09:39:23;8;8;
81640;PMS5003;71053;50.722;-1.944;2023-08-24T09:41:49;5;5;
81640;PMS5003;71053;50.722;-1.944;2023-08-24T09:44:13;4;4;
81640;PMS5003;71053;50.722;-1.944;2023-08-24T09:46:39;6;6;
81640;PMS5003;71053;50.722;-1.944;2023-08-24T09:49:04;4;4;
81640;PMS5003;71053;50.722;-1.944;2023-08-24T09:51:28;6;6;
81640;PMS5003;71053;50.722;-1.944;2023-08-24T09:53:55;7;7;
81640;PMS5003;71053;50.722;-1.944;2023-08-24T09:56:18;5;5;
81640;PMS5003;71053;50.722;-1.944;2023-08-24T09:58:44;5;5;
81640;PMS5003;71053;50.722;-1.944;2023-08-24T10:01:09;6;6;
81640;PMS5003;71053;50.722;-1.944;2023-08-24T10:03:34;4;4;
81640;PMS5003;71053;50.722;-1.944;2023-08-24T10:05:59;7;7;
81640;PMS5003;71053;50.722;-1.944;2023-08-24T10:08:26;6;6;
81640;PMS5003;71053;50.722;-1.944;2023-08-24T10:10:50;5;5;
81640;PMS5003;71053;50.722;-1.944;2023-08-24T10:13:16;3;3;
81640;PMS5003;71053;50.722;-1.944;2023-08-24T10:15:39;5;5;
81640;PMS5003;71053;50.722;-1.944;2023-08-24T10:18:04;5;5;
81640;PMS5003;71053;50.722;-1.944;2023-08-24T10:20:29;6;6;
81640;PMS5003;71053;50.722;-1.944;2023-08-24T10:22:54;6;6;
81640;PMS5003;71053;50.722;-1.944;2023-08-24T10:25:19;7;6;
81640;PMS5003;71053;50.722;-1.944;2023-08-24T10:27:44;5;5;
81640;PMS5003;71053;50.722;-1.944;2023-08-24T10:30:09;5;5;
81640;PMS5003;71053;50.722;-1.944;2023-08-24T10:32:34;7;7;
81640;PMS5003;71053;50.722;-1.944;2023-08-24T10:34:59;6;6;
81640;PMS5003;71053;50.722;-1.944;2023-08-24T10:37:25;5;5;
81640;PMS5003;71053;50.722;-1.944;2023-08-24T10:39:49;6;6;
81640;PMS5003;71053;50.722;-1.944;2023-08-24T10:42:14;6;5;
81640;PMS5003;71053;50.722;-1.944;2023-08-24T10:44:40;7;6;
81640;PMS5003;71053;50.722;-1.944;2023-08-24T10:47:05;7;7;
81640;PMS5003;71053;50.722;-1.944;2023-08-24T10:49:29;8;7;
81640;PMS5003;71053;50.722;-1.944;2023-08-24T10:51:54;6;6;
81640;PMS5003;71053;50.722;-1.944;2023-08-24T10:54:23;7;7;
81640;PMS5003;71053;50.722;-1.944;2023-08-24T10:56:52;5;5;
81640;PMS5003;71053;50.722;-1.944;2023-08-24T10:59:10;5;5;
81640;PMS5003;71053;50.722;-1.944;2023-08-24T11:01:34;5;5;
81640;PMS5003;71053;50.722;-1.944;2023-08-24T11:03:59;10;10;
81640;PMS5003;71053;50.722;-1.944;2023-08-24T11:06:25;6;5;
81640;PMS5003;71053;50.722;-1.944;2023-08-24T11:09:06;9;9;
81640;PMS5003;71053;50.722;-1.944;2023-08-24T11:11:18;8;8;
81640;PMS5003;71053;50.722;-1.944;2023-08-24T11:13:39;9;9;
81640;PMS5003;71053;50.722;-1.944;2023-08-24T11:16:05;8;8;
81640;PMS5003;71053;50.722;-1.944;2023-08-24T11:18:30;8;8;
81640;PMS5003;71053;50.722;-1.944;2023-08-24T11:20:56;11;10;
81640;PMS5003;71053;50.722;-1.944;2023-08-24T11:23:21;8;8;
81640;PMS5003;71053;50.722;-1.944;2023-08-24T11:25:46;5;5;
81640;PMS5003;71053;50.722;-1.944;2023-08-24T11:28:10;8;8;
81640;PMS5003;71053;50.722;-1.944;2023-08-24T11:30:35;8;8;
81640;PMS5003;71053;50.722;-1.944;2023-08-24T11:33:01;8;8;
81640;PMS5003;71053;50.722;-1.944;2023-08-24T11:35:26;9;9;
81640;PMS5003;71053;50.722;-1.944;2023-08-24T11:37:51;9;9;
81640;PMS5003;71053;50.722;-1.944;2023-08-24T11:40:17;6;6;
81640;PMS5003;71053;50.722;-1.944;2023-08-24T11:42:41;6;6;
81640;PMS5003;71053;50.722;-1.944;2023-08-24T11:45:11;9;9;
81640;PMS5003;71053;50.722;-1.944;2023-08-24T11:47:31;8;8;
81640;PMS5003;71053;50.722;-1.944;2023-08-24T11:49:56;9;9;
81640;PMS5003;71053;50.722;-1.944;2023-08-24T11:52:21;8;8;
81640;PMS5003;71053;50.722;-1.944;2023-08-24T11:54:46;6;6;
81640;PMS5003;71053;50.722;-1.944;2023-08-24T11:57:11;8;8;
81640;PMS5003;71053;50.722;-1.944;2023-08-24T11:59:36;8;8;
81640;PMS5003;71053;50.722;-1.944;2023-08-24T12:02:01;7;7;
81640;PMS5003;71053;50.722;-1.944;2023-08-24T12:04:26;7;7;
81640;PMS5003;71053;50.722;-1.944;2023-08-24T12:06:51;7;7;
81640;PMS5003;71053;50.722;-1.944;2023-08-24T12:09:16;8;8;
81640;PMS5003;71053;50.722;-1.944;2023-08-24T12:11:42;6;6;
81640;PMS5003;71053;50.722;-1.944;2023-08-24T12:14:07;7;7;
81640;PMS5003;71053;50.722;-1.944;2023-08-24T12:16:32;11;11;
81640;PMS5003;71053;50.722;-1.944;2023-08-24T12:18:58;7;7;
81640;PMS5003;71053;50.722;-1.944;2023-08-24T12:21:23;7;7;
81640;PMS5003;71053;50.722;-1.944;2023-08-24T12:23:54;6;6;
81640;PMS5003;71053;50.722;-1.944;2023-08-24T12:26:17;8;8;
81640;PMS5003;71053;50.722;-1.944;2023-08-24T12:28:39;10;8;
81640;PMS5003;71053;50.722;-1.944;2023-08-24T12:31:04;9;9;
81640;PMS5003;71053;50.722;-1.944;2023-08-24T12:33:30;7;7;
81640;PMS5003;71053;50.722;-1.944;2023-08-24T12:35:54;10;9;
81640;PMS5003;71053;50.722;-1.944;2023-08-24T12:38:19;10;10;
81640;PMS5003;71053;50.722;-1.944;2023-08-24T12:40:44;8;8;
81640;PMS5003;71053;50.722;-1.944;2023-08-24T12:43:09;11;10;
81640;PMS5003;71053;50.722;-1.944;2023-08-24T12:45:35;10;9;
81640;PMS5003;71053;50.722;-1.944;2023-08-24T12:48:00;9;9;
81640;PMS5003;71053;50.722;-1.944;2023-08-24T12:50:25;9;8;
81640;PMS5003;71053;50.722;-1.944;2023-08-24T12:52:50;9;9;
81640;PMS5003;71053;50.722;-1.944;2023-08-24T12:55:15;9;9;
81640;PMS5003;71053;50.722;-1.944;2023-08-24T12:57:40;11;11;
81640;PMS5003;71053;50.722;-1.944;2023-08-24T13:00:06;9;9;
81640;PMS5003;71053;50.722;-1.944;2023-08-24T13:02:31;10;10;
81640;PMS5003;71053;50.722;-1.944;2023-08-24T13:04:56;9;9;
81640;PMS5003;71053;50.722;-1.944;2023-08-24T13:07:21;8;8;
81640;PMS5003;71053;50.722;-1.944;2023-08-24T13:09:46;10;9;
81640;PMS5003;71053;50.722;-1.944;2023-08-24T13:12:11;9;8;
81640;PMS5003;71053;50.722;-1.944;2023-08-24T13:14:36;10;10;
81640;PMS5003;71053;50.722;-1.944;2023-08-24T13:17:01;12;10;
81640;PMS5003;71053;50.722;-1.944;2023-08-24T13:19:26;11;11;
81640;PMS5003;71053;50.722;-1.944;2023-08-24T13:21:51;10;10;
81640;PMS5003;71053;50.722;-1.944;2023-08-24T13:24:16;9;9;
81640;PMS5003;71053;50.722;-1.944;2023-08-24T13:26:41;12;12;
81640;PMS5003;71053;50.722;-1.944;2023-08-24T13:29:06;10;10;
81640;PMS5003;71053;50.722;-1.944;2023-08-24T13:31:32;11;11;
81640;PMS5003;71053;50.722;-1.944;2023-08-24T13:33:57;12;12;
81640;PMS5003;71053;50.722;-1.944;2023-08-24T13:36:22;10;10;
81640;PMS5003;71053;50.722;-1.944;2023-08-24T13:38:47;10;10;
81640;PMS5003;71053;50.722;-1.944;2023-08-24T13:41:12;9;9;
81640;PMS5003;71053;50.722;-1.944;2023-08-24T13:43:37;10;9;
81640;PMS5003;71053;50.722;-1.944;2023-08-24T13:46:02;9;9;
81640;PMS5003;71053;50.722;-1.944;2023-08-24T13:48:27;10;10;
81640;PMS5003;71053;50.722;-1.944;2023-08-24T13:50:53;8;8;
81640;PMS5003;71053;50.722;-1.944;2023-08-24T13:53:19;9;9;
81640;PMS5003;71053;50.722;-1.944;2023-08-24T13:55:44;10;10;
81640;PMS5003;71053;50.722;-1.944;2023-08-24T13:58:10;9;9;
81640;PMS5003;71053;50.722;-1.944;2023-08-24T14:00:36;8;8;
81640;PMS5003;71053;50.722;-1.944;2023-08-24T14:03:01;10;10;
81640;PMS5003;71053;50.722;-1.944;2023-08-24T14:05:27;10;9;
81640;PMS5003;71053;50.722;-1.944;2023-08-24T14:07:53;9;9;
81640;PMS5003;71053;50.722;-1.944;2023-08-24T14:10:18;8;8;
81640;PMS5003;71053;50.722;-1.944;2023-08-24T14:12:44;11;11;
81640;PMS5003;71053;50.722;-1.944;2023-08-24T14:15:09;9;9;
81640;PMS5003;71053;50.722;-1.944;2023-08-24T14:17:34;8;8;
81640;PMS5003;71053;50.722;-1.944;2023-08-24T14:19:59;6;5;
81640;PMS5003;71053;50.722;-1.944;2023-08-24T14:22:25;6;6;
81640;PMS5003;71053;50.722;-1.944;2023-08-24T14:24:50;10;10;
81640;PMS5003;71053;50.722;-1.944;2023-08-24T14:27:15;5;5;
81640;PMS5003;71053;50.722;-1.944;2023-08-24T14:29:40;6;6;
81640;PMS5003;71053;50.722;-1.944;2023-08-24T14:32:05;6;6;
81640;PMS5003;71053;50.722;-1.944;2023-08-24T14:34:31;9;9;
81640;PMS5003;71053;50.722;-1.944;2023-08-24T14:36:56;6;6;
81640;PMS5003;71053;50.722;-1.944;2023-08-24T14:39:21;6;5;
81640;PMS5003;71053;50.722;-1.944;2023-08-24T14:41:47;6;6;
81640;PMS5003;71053;50.722;-1.944;2023-08-24T14:44:12;8;7;
81640;PMS5003;71053;50.722;-1.944;2023-08-24T14:46:37;8;7;
81640;PMS5003;71053;50.722;-1.944;2023-08-24T14:49:02;5;5;
81640;PMS5003;71053;50.722;-1.944;2023-08-24T14:51:27;6;6;
81640;PMS5003;71053;50.722;-1.944;2023-08-24T14:53:53;6;6;
81640;PMS5003;71053;50.722;-1.944;2023-08-24T14:56:18;5;5;
81640;PMS5003;71053;50.722;-1.944;2023-08-24T14:58:43;6;6;
81640;PMS5003;71053;50.722;-1.944;2023-08-24T15:01:08;6;5;
81640;PMS5003;71053;50.722;-1.944;2023-08-24T15:03:33;8;8;
81640;PMS5003;71053;50.722;-1.944;2023-08-24T15:05:58;8;8;
81640;PMS5003;71053;50.722;-1.944;2023-08-24T15:08:23;6;6;
81640;PMS5003;71053;50.722;-1.944;2023-08-24T15:10:48;6;6;
81640;PMS5003;71053;50.722;-1.944;2023-08-24T15:13:13;7;7;
81640;PMS5003;71053;50.722;-1.944;2023-08-24T15:15:38;6;6;
81640;PMS5003;71053;50.722;-1.944;2023-08-24T15:18:03;7;7;
81640;PMS5003;71053;50.722;-1.944;2023-08-24T15:20:29;8;7;
81640;PMS5003;71053;50.722;-1.944;2023-08-24T15:22:54;7;7;
81640;PMS5003;71053;50.722;-1.944;2023-08-24T15:25:20;6;6;
81640;PMS5003;71053;50.722;-1.944;2023-08-24T15:27:46;6;6;
81640;PMS5003;71053;50.722;-1.944;2023-08-24T15:30:12;5;5;
81640;PMS5003;71053;50.722;-1.944;2023-08-24T15:32:38;5;5;
81640;PMS5003;71053;50.722;-1.944;2023-08-24T15:35:04;5;5;
81640;PMS5003;71053;50.722;-1.944;2023-08-24T15:37:30;2;2;
81640;PMS5003;71053;50.722;-1.944;2023-08-24T15:39:55;5;5;
81640;PMS5003;71053;50.722;-1.944;2023-08-24T15:42:21;4;4;
81640;PMS5003;71053;50.722;-1.944;2023-08-24T15:44:47;5;5;
81640;PMS5003;71053;50.722;-1.944;2023-08-24T15:47:13;6;6;
81640;PMS5003;71053;50.722;-1.944;2023-08-24T15:49:38;6;5;
81640;PMS5003;71053;50.722;-1.944;2023-08-24T15:52:05;5;4;
81640;PMS5003;71053;50.722;-1.944;2023-08-24T15:54:30;5;5;
81640;PMS5003;71053;50.722;-1.944;2023-08-24T15:56:56;5;4;
81640;PMS5003;71053;50.722;-1.944;2023-08-24T15:59:22;6;6;
81640;PMS5003;71053;50.722;-1.944;2023-08-24T16:01:48;4;4;
81640;PMS5003;71053;50.722;-1.944;2023-08-24T16:04:14;6;6;
81640;PMS5003;71053;50.722;-1.944;2023-08-24T16:06:39;6;6;
81640;PMS5003;71053;50.722;-1.944;2023-08-24T16:09:05;6;6;
81640;PMS5003;71053;50.722;-1.944;2023-08-24T16:11:31;4;4;
81640;PMS5003;71053;50.722;-1.944;2023-08-24T16:13:57;4;4;
81640;PMS5003;71053;50.722;-1.944;2023-08-24T16:16:23;5;5;
81640;PMS5003;71053;50.722;-1.944;2023-08-24T16:18:49;5;5;